sensor_id;sensor_type;location;lat;lon;timestamp;P1;durP1;ratioP1;P2;durP2;ratioP2
73084;SDS011;62974;49.460;10.892;2023-05-10T00:01:44;5.32;;;3.05;;
73084;SDS011;62974;49.460;10.892;2023-05-10T00:04:11;5.50;;;3.28;;
73084;SDS011;62974;49.460;10.892;2023-05-10T00:06:41;7.10;;;3.47;;
73084;SDS011;62974;49.460;10.892;2023-05-10T00:09:09;7.18;;;3.20;;
73084;SDS011;62974;49.460;10.892;2023-05-10T00:11:36;5.75;;;3.13;;
73084;SDS011;62974;49.460;10.892;2023-05-10T00:14:04;6.18;;;3.58;;
73084;SDS011;62974;49.460;10.892;2023-05-10T00:18:58;7.30;;;3.70;;
73084;SDS011;62974;49.460;10.892;2023-05-10T00:21:26;6.43;;;3.30;;
73084;SDS011;62974;49.460;10.892;2023-05-10T00:23:55;4.95;;;3.10;;
73084;SDS011;62974;49.460;10.892;2023-05-10T00:26:23;6.78;;;3.58;;
73084;SDS011;62974;49.460;10.892;2023-05-10T00:28:50;6.63;;;3.60;;
73084;SDS011;62974;49.460;10.892;2023-05-10T00:31:18;7.03;;;3.00;;
73084;SDS011;62974;49.460;10.892;2023-05-10T00:33:46;5.43;;;2.95;;
73084;SDS011;62974;49.460;10.892;2023-05-10T00:36:13;5.50;;;3.08;;
73084;SDS011;62974;49.460;10.892;2023-05-10T00:38:41;5.32;;;3.00;;
73084;SDS011;62974;49.460;10.892;2023-05-10T00:41:09;6.47;;;3.42;;
73084;SDS011;62974;49.460;10.892;2023-05-10T00:43:37;6.22;;;3.35;;
73084;SDS011;62974;49.460;10.892;2023-05-10T00:46:04;5.63;;;3.30;;
73084;SDS011;62974;49.460;10.892;2023-05-10T00:48:32;6.00;;;3.30;;
73084;SDS011;62974;49.460;10.892;2023-05-10T00:51:01;4.38;;;2.50;;
73084;SDS011;62974;49.460;10.892;2023-05-10T00:55:58;7.03;;;2.90;;
73084;SDS011;62974;49.460;10.892;2023-05-10T00:58:27;6.40;;;2.78;;
73084;SDS011;62974;49.460;10.892;2023-05-10T01:00:57;4.90;;;2.85;;
73084;SDS011;62974;49.460;10.892;2023-05-10T01:03:25;5.32;;;2.80;;
73084;SDS011;62974;49.460;10.892;2023-05-10T01:05:53;5.00;;;2.92;;
73084;SDS011;62974;49.460;10.892;2023-05-10T01:08:21;7.25;;;3.13;;
73084;SDS011;62974;49.460;10.892;2023-05-10T01:10:48;6.80;;;3.38;;
73084;SDS011;62974;49.460;10.892;2023-05-10T01:13:18;5.20;;;3.08;;
73084;SDS011;62974;49.460;10.892;2023-05-10T01:15:58;6.35;;;3.08;;
73084;SDS011;62974;49.460;10.892;2023-05-10T01:18:28;6.80;;;3.20;;
73084;SDS011;62974;49.460;10.892;2023-05-10T01:21:01;6.45;;;3.03;;
73084;SDS011;62974;49.460;10.892;2023-05-10T01:26:46;5.05;;;2.60;;
73084;SDS011;62974;49.460;10.892;2023-05-10T01:32:43;4.18;;;2.63;;
73084;SDS011;62974;49.460;10.892;2023-05-10T01:35:18;4.20;;;2.33;;
73084;SDS011;62974;49.460;10.892;2023-05-10T01:37:56;5.03;;;2.80;;
73084;SDS011;62974;49.460;10.892;2023-05-10T01:40:32;4.85;;;2.40;;
73084;SDS011;62974;49.460;10.892;2023-05-10T01:43:07;6.00;;;3.17;;
73084;SDS011;62974;49.460;10.892;2023-05-10T01:45:46;5.57;;;3.00;;
73084;SDS011;62974;49.460;10.892;2023-05-10T01:48:24;4.40;;;2.70;;
73084;SDS011;62974;49.460;10.892;2023-05-10T01:50:55;5.55;;;2.53;;
73084;SDS011;62974;49.460;10.892;2023-05-10T01:53:24;4.85;;;3.05;;
73084;SDS011;62974;49.460;10.892;2023-05-10T01:55:53;4.85;;;2.92;;
73084;SDS011;62974;49.460;10.892;2023-05-10T01:58:23;4.55;;;2.22;;
73084;SDS011;62974;49.460;10.892;2023-05-10T02:00:54;3.65;;;1.90;;
73084;SDS011;62974;49.460;10.892;2023-05-10T02:03:25;3.60;;;2.47;;
73084;SDS011;62974;49.460;10.892;2023-05-10T02:05:55;5.68;;;2.80;;
73084;SDS011;62974;49.460;10.892;2023-05-10T02:08:24;5.93;;;2.65;;
73084;SDS011;62974;49.460;10.892;2023-05-10T02:10:53;3.50;;;2.30;;
73084;SDS011;62974;49.460;10.892;2023-05-10T02:13:23;3.60;;;2.40;;
73084;SDS011;62974;49.460;10.892;2023-05-10T02:15:53;5.65;;;2.42;;
73084;SDS011;62974;49.460;10.892;2023-05-10T02:18:22;4.68;;;2.30;;
73084;SDS011;62974;49.460;10.892;2023-05-10T02:20:54;3.90;;;2.13;;
73084;SDS011;62974;49.460;10.892;2023-05-10T02:23:23;2.88;;;1.80;;
73084;SDS011;62974;49.460;10.892;2023-05-10T02:25:52;3.55;;;1.90;;
73084;SDS011;62974;49.460;10.892;2023-05-10T02:28:22;2.70;;;1.48;;
73084;SDS011;62974;49.460;10.892;2023-05-10T02:30:51;3.25;;;1.63;;
73084;SDS011;62974;49.460;10.892;2023-05-10T02:33:20;3.58;;;1.67;;
73084;SDS011;62974;49.460;10.892;2023-05-10T02:35:48;4.55;;;2.00;;
73084;SDS011;62974;49.460;10.892;2023-05-10T02:38:19;3.60;;;1.77;;
73084;SDS011;62974;49.460;10.892;2023-05-10T02:40:49;3.70;;;1.77;;
73084;SDS011;62974;49.460;10.892;2023-05-10T02:43:18;3.53;;;1.80;;
73084;SDS011;62974;49.460;10.892;2023-05-10T02:45:48;3.42;;;1.60;;
73084;SDS011;62974;49.460;10.892;2023-05-10T02:48:16;2.50;;;1.50;;
73084;SDS011;62974;49.460;10.892;2023-05-10T02:50:44;2.08;;;1.30;;
73084;SDS011;62974;49.460;10.892;2023-05-10T02:53:15;3.42;;;1.15;;
73084;SDS011;62974;49.460;10.892;2023-05-10T02:55:48;1.73;;;0.90;;
73084;SDS011;62974;49.460;10.892;2023-05-10T02:58:18;1.50;;;0.90;;
73084;SDS011;62974;49.460;10.892;2023-05-10T03:00:46;1.67;;;0.80;;
73084;SDS011;62974;49.460;10.892;2023-05-10T03:03:14;1.50;;;1.00;;
73084;SDS011;62974;49.460;10.892;2023-05-10T03:05:41;3.92;;;0.75;;
73084;SDS011;62974;49.460;10.892;2023-05-10T03:08:09;0.90;;;0.60;;
73084;SDS011;62974;49.460;10.892;2023-05-10T03:10:38;0.40;;;0.32;;
73084;SDS011;62974;49.460;10.892;2023-05-10T03:13:16;0.80;;;0.57;;
73084;SDS011;62974;49.460;10.892;2023-05-10T03:15:57;0.50;;;0.32;;
73084;SDS011;62974;49.460;10.892;2023-05-10T03:18:33;0.52;;;0.50;;
73084;SDS011;62974;49.460;10.892;2023-05-10T03:21:07;1.00;;;0.40;;
73084;SDS011;62974;49.460;10.892;2023-05-10T03:23:40;2.15;;;0.47;;
73084;SDS011;62974;49.460;10.892;2023-05-10T03:26:10;0.40;;;0.40;;
73084;SDS011;62974;49.460;10.892;2023-05-10T03:28:45;0.50;;;0.30;;
73084;SDS011;62974;49.460;10.892;2023-05-10T03:31:15;0.40;;;0.30;;
73084;SDS011;62974;49.460;10.892;2023-05-10T03:33:47;1.65;;;0.30;;
73084;SDS011;62974;49.460;10.892;2023-05-10T03:36:15;0.30;;;0.30;;
73084;SDS011;62974;49.460;10.892;2023-05-10T03:38:42;0.60;;;0.32;;
73084;SDS011;62974;49.460;10.892;2023-05-10T03:41:10;0.47;;;0.30;;
73084;SDS011;62974;49.460;10.892;2023-05-10T03:43:37;0.20;;;0.20;;
73084;SDS011;62974;49.460;10.892;2023-05-10T03:46:06;0.57;;;0.28;;
73084;SDS011;62974;49.460;10.892;2023-05-10T03:48:34;0.50;;;0.32;;
73084;SDS011;62974;49.460;10.892;2023-05-10T03:51:01;0.57;;;0.30;;
73084;SDS011;62974;49.460;10.892;2023-05-10T03:53:29;0.60;;;0.20;;
73084;SDS011;62974;49.460;10.892;2023-05-10T03:55:56;0.57;;;0.30;;
73084;SDS011;62974;49.460;10.892;2023-05-10T03:58:24;0.45;;;0.20;;
73084;SDS011;62974;49.460;10.892;2023-05-10T04:00:51;0.15;;;0.10;;
73084;SDS011;62974;49.460;10.892;2023-05-10T04:03:20;0.32;;;0.28;;
73084;SDS011;62974;49.460;10.892;2023-05-10T04:05:49;0.30;;;0.20;;
73084;SDS011;62974;49.460;10.892;2023-05-10T04:08:25;0.30;;;0.20;;
73084;SDS011;62974;49.460;10.892;2023-05-10T04:10:52;0.30;;;0.25;;
73084;SDS011;62974;49.460;10.892;2023-05-10T04:13:20;0.63;;;0.45;;
73084;SDS011;62974;49.460;10.892;2023-05-10T04:15:48;0.43;;;0.30;;
73084;SDS011;62974;49.460;10.892;2023-05-10T04:18:16;0.40;;;0.30;;
73084;SDS011;62974;49.460;10.892;2023-05-10T04:20:45;0.65;;;0.30;;
73084;SDS011;62974;49.460;10.892;2023-05-10T04:23:12;0.50;;;0.30;;
73084;SDS011;62974;49.460;10.892;2023-05-10T04:25:40;0.57;;;0.30;;
73084;SDS011;62974;49.460;10.892;2023-05-10T04:28:07;0.38;;;0.30;;
73084;SDS011;62974;49.460;10.892;2023-05-10T04:30:35;0.55;;;0.20;;
73084;SDS011;62974;49.460;10.892;2023-05-10T04:33:03;0.25;;;0.25;;
73084;SDS011;62974;49.460;10.892;2023-05-10T04:35:30;0.70;;;0.40;;
73084;SDS011;62974;49.460;10.892;2023-05-10T04:37:59;0.52;;;0.32;;
73084;SDS011;62974;49.460;10.892;2023-05-10T04:40:27;0.30;;;0.30;;
73084;SDS011;62974;49.460;10.892;2023-05-10T04:42:54;0.68;;;0.40;;
73084;SDS011;62974;49.460;10.892;2023-05-10T04:45:22;0.65;;;0.50;;
73084;SDS011;62974;49.460;10.892;2023-05-10T04:47:49;0.82;;;0.50;;
73084;SDS011;62974;49.460;10.892;2023-05-10T04:50:17;0.80;;;0.40;;
73084;SDS011;62974;49.460;10.892;2023-05-10T04:52:45;0.50;;;0.38;;
73084;SDS011;62974;49.460;10.892;2023-05-10T04:55:14;0.43;;;0.32;;
73084;SDS011;62974;49.460;10.892;2023-05-10T04:57:42;0.40;;;0.30;;
73084;SDS011;62974;49.460;10.892;2023-05-10T05:00:10;0.73;;;0.40;;
73084;SDS011;62974;49.460;10.892;2023-05-10T05:02:38;0.70;;;0.30;;
73084;SDS011;62974;49.460;10.892;2023-05-10T05:05:10;2.05;;;0.50;;
73084;SDS011;62974;49.460;10.892;2023-05-10T05:07:37;0.60;;;0.50;;
73084;SDS011;62974;49.460;10.892;2023-05-10T05:10:05;0.90;;;0.60;;
73084;SDS011;62974;49.460;10.892;2023-05-10T05:12:35;0.55;;;0.40;;
73084;SDS011;62974;49.460;10.892;2023-05-10T05:15:03;0.25;;;0.20;;
73084;SDS011;62974;49.460;10.892;2023-05-10T05:17:34;0.45;;;0.30;;
73084;SDS011;62974;49.460;10.892;2023-05-10T05:20:02;0.85;;;0.45;;
73084;SDS011;62974;49.460;10.892;2023-05-10T05:24:57;0.80;;;0.45;;
73084;SDS011;62974;49.460;10.892;2023-05-10T05:27:25;1.02;;;0.50;;
73084;SDS011;62974;49.460;10.892;2023-05-10T05:29:55;0.60;;;0.40;;
73084;SDS011;62974;49.460;10.892;2023-05-10T05:32:23;0.95;;;0.50;;
73084;SDS011;62974;49.460;10.892;2023-05-10T05:37:19;1.38;;;0.63;;
73084;SDS011;62974;49.460;10.892;2023-05-10T05:39:48;0.73;;;0.47;;
73084;SDS011;62974;49.460;10.892;2023-05-10T05:42:16;1.35;;;0.70;;
73084;SDS011;62974;49.460;10.892;2023-05-10T05:44:44;0.60;;;0.45;;
73084;SDS011;62974;49.460;10.892;2023-05-10T05:47:13;1.45;;;0.77;;
73084;SDS011;62974;49.460;10.892;2023-05-10T05:49:41;0.80;;;0.40;;
73084;SDS011;62974;49.460;10.892;2023-05-10T05:52:11;3.30;;;1.20;;
73084;SDS011;62974;49.460;10.892;2023-05-10T05:54:42;1.42;;;0.70;;
73084;SDS011;62974;49.460;10.892;2023-05-10T05:57:10;1.23;;;0.70;;
73084;SDS011;62974;49.460;10.892;2023-05-10T05:59:37;1.15;;;0.70;;
73084;SDS011;62974;49.460;10.892;2023-05-10T06:02:08;1.35;;;0.55;;
73084;SDS011;62974;49.460;10.892;2023-05-10T06:04:37;1.17;;;0.70;;
73084;SDS011;62974;49.460;10.892;2023-05-10T06:07:05;0.90;;;0.68;;
73084;SDS011;62974;49.460;10.892;2023-05-10T06:09:32;1.10;;;0.73;;
73084;SDS011;62974;49.460;10.892;2023-05-10T06:12:00;1.05;;;0.80;;
73084;SDS011;62974;49.460;10.892;2023-05-10T06:14:27;1.20;;;0.82;;
73084;SDS011;62974;49.460;10.892;2023-05-10T06:16:55;1.35;;;0.80;;
73084;SDS011;62974;49.460;10.892;2023-05-10T06:19:23;0.98;;;0.68;;
73084;SDS011;62974;49.460;10.892;2023-05-10T06:21:51;1.40;;;0.93;;
73084;SDS011;62974;49.460;10.892;2023-05-10T06:24:19;2.50;;;0.90;;
73084;SDS011;62974;49.460;10.892;2023-05-10T06:26:47;1.75;;;1.02;;
73084;SDS011;62974;49.460;10.892;2023-05-10T06:29:16;2.33;;;1.40;;
73084;SDS011;62974;49.460;10.892;2023-05-10T06:31:43;1.52;;;1.00;;
73084;SDS011;62974;49.460;10.892;2023-05-10T06:34:11;1.40;;;0.73;;
73084;SDS011;62974;49.460;10.892;2023-05-10T06:36:39;1.23;;;0.63;;
73084;SDS011;62974;49.460;10.892;2023-05-10T06:39:08;2.75;;;0.88;;
73084;SDS011;62974;49.460;10.892;2023-05-10T06:41:37;0.95;;;0.73;;
73084;SDS011;62974;49.460;10.892;2023-05-10T06:44:05;2.70;;;1.10;;
73084;SDS011;62974;49.460;10.892;2023-05-10T06:46:32;1.77;;;1.10;;
73084;SDS011;62974;49.460;10.892;2023-05-10T06:49:00;1.70;;;1.17;;
73084;SDS011;62974;49.460;10.892;2023-05-10T06:51:27;1.80;;;1.25;;
73084;SDS011;62974;49.460;10.892;2023-05-10T06:53:55;1.90;;;1.15;;
73084;SDS011;62974;49.460;10.892;2023-05-10T06:56:26;1.60;;;0.73;;
73084;SDS011;62974;49.460;10.892;2023-05-10T06:58:54;2.33;;;1.35;;
73084;SDS011;62974;49.460;10.892;2023-05-10T07:01:21;2.78;;;1.20;;
73084;SDS011;62974;49.460;10.892;2023-05-10T07:03:49;2.10;;;1.30;;
73084;SDS011;62974;49.460;10.892;2023-05-10T07:06:17;1.05;;;0.80;;
73084;SDS011;62974;49.460;10.892;2023-05-10T07:08:58;2.05;;;1.20;;
73084;SDS011;62974;49.460;10.892;2023-05-10T07:11:27;1.70;;;1.17;;
73084;SDS011;62974;49.460;10.892;2023-05-10T07:13:55;2.55;;;1.27;;
73084;SDS011;62974;49.460;10.892;2023-05-10T07:16:22;2.33;;;1.17;;
73084;SDS011;62974;49.460;10.892;2023-05-10T07:18:50;3.28;;;1.23;;
73084;SDS011;62974;49.460;10.892;2023-05-10T07:21:19;1.98;;;1.10;;
73084;SDS011;62974;49.460;10.892;2023-05-10T07:23:47;2.38;;;1.15;;
73084;SDS011;62974;49.460;10.892;2023-05-10T07:26:14;1.55;;;0.85;;
73084;SDS011;62974;49.460;10.892;2023-05-10T07:28:43;2.17;;;1.38;;
73084;SDS011;62974;49.460;10.892;2023-05-10T07:31:10;2.20;;;1.25;;
73084;SDS011;62974;49.460;10.892;2023-05-10T07:33:38;2.03;;;1.15;;
73084;SDS011;62974;49.460;10.892;2023-05-10T07:36:06;1.58;;;1.00;;
73084;SDS011;62974;49.460;10.892;2023-05-10T07:38:33;2.70;;;1.23;;
73084;SDS011;62974;49.460;10.892;2023-05-10T07:41:03;1.75;;;1.13;;
73084;SDS011;62974;49.460;10.892;2023-05-10T07:43:30;1.73;;;1.00;;
73084;SDS011;62974;49.460;10.892;2023-05-10T07:45:59;2.63;;;1.30;;
73084;SDS011;62974;49.460;10.892;2023-05-10T07:48:27;2.80;;;1.17;;
73084;SDS011;62974;49.460;10.892;2023-05-10T07:50:54;4.07;;;1.48;;
73084;SDS011;62974;49.460;10.892;2023-05-10T07:53:22;2.17;;;1.27;;
73084;SDS011;62974;49.460;10.892;2023-05-10T07:55:50;2.72;;;1.40;;
73084;SDS011;62974;49.460;10.892;2023-05-10T07:58:17;1.58;;;0.95;;
73084;SDS011;62974;49.460;10.892;2023-05-10T08:00:45;1.75;;;0.95;;
73084;SDS011;62974;49.460;10.892;2023-05-10T08:03:14;1.77;;;1.10;;
73084;SDS011;62974;49.460;10.892;2023-05-10T08:05:42;2.53;;;1.20;;
73084;SDS011;62974;49.460;10.892;2023-05-10T08:08:09;2.25;;;1.20;;
73084;SDS011;62974;49.460;10.892;2023-05-10T08:10:37;2.90;;;1.23;;
73084;SDS011;62974;49.460;10.892;2023-05-10T08:13:06;2.30;;;1.45;;
73084;SDS011;62974;49.460;10.892;2023-05-10T08:15:33;2.85;;;1.42;;
73084;SDS011;62974;49.460;10.892;2023-05-10T08:18:01;2.33;;;1.20;;
73084;SDS011;62974;49.460;10.892;2023-05-10T08:20:29;2.30;;;1.45;;
73084;SDS011;62974;49.460;10.892;2023-05-10T08:22:57;3.00;;;1.60;;
73084;SDS011;62974;49.460;10.892;2023-05-10T08:25:24;2.65;;;1.30;;
73084;SDS011;62974;49.460;10.892;2023-05-10T08:27:52;1.75;;;1.20;;
73084;SDS011;62974;49.460;10.892;2023-05-10T08:30:20;3.28;;;1.20;;
73084;SDS011;62974;49.460;10.892;2023-05-10T08:32:47;2.40;;;1.48;;
73084;SDS011;62974;49.460;10.892;2023-05-10T08:35:15;3.15;;;1.77;;
73084;SDS011;62974;49.460;10.892;2023-05-10T08:37:44;3.63;;;1.58;;
73084;SDS011;62974;49.460;10.892;2023-05-10T08:40:12;2.58;;;1.65;;
73084;SDS011;62974;49.460;10.892;2023-05-10T08:42:43;6.43;;;2.00;;
73084;SDS011;62974;49.460;10.892;2023-05-10T08:45:16;2.50;;;1.33;;
73084;SDS011;62974;49.460;10.892;2023-05-10T08:47:46;1.80;;;1.10;;
73084;SDS011;62974;49.460;10.892;2023-05-10T08:50:14;2.75;;;1.40;;
73084;SDS011;62974;49.460;10.892;2023-05-10T08:52:44;3.03;;;1.90;;
73084;SDS011;62974;49.460;10.892;2023-05-10T08:55:14;1.70;;;1.30;;
73084;SDS011;62974;49.460;10.892;2023-05-10T08:57:43;5.60;;;1.60;;
73084;SDS011;62974;49.460;10.892;2023-05-10T09:00:14;2.42;;;1.60;;
73084;SDS011;62974;49.460;10.892;2023-05-10T09:02:42;7.85;;;1.67;;
73084;SDS011;62974;49.460;10.892;2023-05-10T09:05:12;2.03;;;1.17;;
73084;SDS011;62974;49.460;10.892;2023-05-10T09:07:42;5.43;;;2.10;;
73084;SDS011;62974;49.460;10.892;2023-05-10T09:10:11;5.10;;;2.03;;
73084;SDS011;62974;49.460;10.892;2023-05-10T09:12:40;3.28;;;1.80;;
73084;SDS011;62974;49.460;10.892;2023-05-10T09:15:10;4.40;;;2.00;;
73084;SDS011;62974;49.460;10.892;2023-05-10T09:17:38;2.17;;;1.13;;
73084;SDS011;62974;49.460;10.892;2023-05-10T09:20:07;2.25;;;1.45;;
73084;SDS011;62974;49.460;10.892;2023-05-10T09:22:35;3.40;;;1.55;;
73084;SDS011;62974;49.460;10.892;2023-05-10T09:25:04;1.95;;;1.17;;
73084;SDS011;62974;49.460;10.892;2023-05-10T09:27:34;1.33;;;0.75;;
73084;SDS011;62974;49.460;10.892;2023-05-10T09:30:02;3.88;;;1.33;;
73084;SDS011;62974;49.460;10.892;2023-05-10T09:32:37;1.65;;;0.90;;
73084;SDS011;62974;49.460;10.892;2023-05-10T09:35:06;2.00;;;0.90;;
73084;SDS011;62974;49.460;10.892;2023-05-10T09:37:34;1.70;;;0.90;;
73084;SDS011;62974;49.460;10.892;2023-05-10T09:40:04;3.25;;;1.08;;
73084;SDS011;62974;49.460;10.892;2023-05-10T09:42:34;1.60;;;1.02;;
73084;SDS011;62974;49.460;10.892;2023-05-10T09:45:04;1.88;;;1.10;;
73084;SDS011;62974;49.460;10.892;2023-05-10T09:47:33;3.67;;;1.20;;
73084;SDS011;62974;49.460;10.892;2023-05-10T09:50:02;2.38;;;1.30;;
73084;SDS011;62974;49.460;10.892;2023-05-10T09:52:30;1.63;;;1.08;;
73084;SDS011;62974;49.460;10.892;2023-05-10T09:55:12;2.78;;;1.20;;
73084;SDS011;62974;49.460;10.892;2023-05-10T09:57:41;1.40;;;0.52;;
73084;SDS011;62974;49.460;10.892;2023-05-10T10:00:09;4.38;;;1.10;;
73084;SDS011;62974;49.460;10.892;2023-05-10T10:02:38;1.38;;;0.88;;
73084;SDS011;62974;49.460;10.892;2023-05-10T10:05:06;2.78;;;1.58;;
73084;SDS011;62974;49.460;10.892;2023-05-10T10:10:02;1.77;;;1.00;;
73084;SDS011;62974;49.460;10.892;2023-05-10T10:12:30;1.50;;;0.70;;
73084;SDS011;62974;49.460;10.892;2023-05-10T10:15:00;1.55;;;1.00;;
73084;SDS011;62974;49.460;10.892;2023-05-10T10:17:27;2.00;;;1.00;;
73084;SDS011;62974;49.460;10.892;2023-05-10T10:19:57;1.70;;;1.05;;
73084;SDS011;62974;49.460;10.892;2023-05-10T10:22:25;1.75;;;0.80;;
73084;SDS011;62974;49.460;10.892;2023-05-10T10:24:53;1.35;;;0.80;;
73084;SDS011;62974;49.460;10.892;2023-05-10T10:27:23;2.60;;;1.10;;
73084;SDS011;62974;49.460;10.892;2023-05-10T10:30:00;1.42;;;0.70;;
73084;SDS011;62974;49.460;10.892;2023-05-10T10:32:37;1.95;;;0.80;;
73084;SDS011;62974;49.460;10.892;2023-05-10T10:35:14;2.50;;;1.17;;
73084;SDS011;62974;49.460;10.892;2023-05-10T10:37:44;1.98;;;1.00;;
73084;SDS011;62974;49.460;10.892;2023-05-10T10:40:22;0.80;;;0.50;;
73084;SDS011;62974;49.460;10.892;2023-05-10T10:42:50;0.88;;;0.65;;
73084;SDS011;62974;49.460;10.892;2023-05-10T10:45:21;4.47;;;1.08;;
73084;SDS011;62974;49.460;10.892;2023-05-10T10:47:53;1.80;;;0.57;;
73084;SDS011;62974;49.460;10.892;2023-05-10T10:50:46;1.20;;;0.80;;
73084;SDS011;62974;49.460;10.892;2023-05-10T10:53:13;1.80;;;0.65;;
73084;SDS011;62974;49.460;10.892;2023-05-10T10:55:47;2.13;;;1.10;;
73084;SDS011;62974;49.460;10.892;2023-05-10T10:58:28;2.17;;;0.68;;
73084;SDS011;62974;49.460;10.892;2023-05-10T11:01:10;1.85;;;1.08;;
73084;SDS011;62974;49.460;10.892;2023-05-10T11:03:39;1.27;;;0.75;;
73084;SDS011;62974;49.460;10.892;2023-05-10T11:06:06;2.38;;;1.42;;
73084;SDS011;62974;49.460;10.892;2023-05-10T11:08:41;3.05;;;1.10;;
73084;SDS011;62974;49.460;10.892;2023-05-10T11:11:09;3.47;;;1.92;;
73084;SDS011;62974;49.460;10.892;2023-05-10T11:13:42;4.63;;;2.22;;
73084;SDS011;62974;49.460;10.892;2023-05-10T11:16:18;3.78;;;1.80;;
73084;SDS011;62974;49.460;10.892;2023-05-10T11:18:51;3.30;;;1.85;;
73084;SDS011;62974;49.460;10.892;2023-05-10T11:21:20;2.70;;;1.50;;
73084;SDS011;62974;49.460;10.892;2023-05-10T11:23:48;2.22;;;1.27;;
73084;SDS011;62974;49.460;10.892;2023-05-10T11:26:17;2.65;;;1.20;;
73084;SDS011;62974;49.460;10.892;2023-05-10T11:28:49;2.25;;;1.20;;
73084;SDS011;62974;49.460;10.892;2023-05-10T11:31:19;7.40;;;1.10;;
73084;SDS011;62974;49.460;10.892;2023-05-10T11:33:47;2.75;;;1.52;;
73084;SDS011;62974;49.460;10.892;2023-05-10T11:36:16;3.40;;;1.30;;
73084;SDS011;62974;49.460;10.892;2023-05-10T11:38:44;2.35;;;1.10;;
73084;SDS011;62974;49.460;10.892;2023-05-10T11:41:12;2.40;;;1.30;;
73084;SDS011;62974;49.460;10.892;2023-05-10T11:46:10;4.50;;;1.42;;
73084;SDS011;62974;49.460;10.892;2023-05-10T11:48:40;2.55;;;1.23;;
73084;SDS011;62974;49.460;10.892;2023-05-10T11:51:09;3.28;;;1.38;;
73084;SDS011;62974;49.460;10.892;2023-05-10T11:53:37;2.00;;;1.20;;
73084;SDS011;62974;49.460;10.892;2023-05-10T11:56:05;1.77;;;1.10;;
73084;SDS011;62974;49.460;10.892;2023-05-10T11:58:34;3.03;;;1.83;;
73084;SDS011;62974;49.460;10.892;2023-05-10T12:01:03;3.60;;;1.30;;
73084;SDS011;62974;49.460;10.892;2023-05-10T12:03:31;1.98;;;0.80;;
73084;SDS011;62974;49.460;10.892;2023-05-10T12:08:29;1.27;;;0.80;;
73084;SDS011;62974;49.460;10.892;2023-05-10T12:13:31;1.45;;;0.90;;
73084;SDS011;62974;49.460;10.892;2023-05-10T12:15:59;1.08;;;0.60;;
73084;SDS011;62974;49.460;10.892;2023-05-10T12:18:26;2.50;;;0.68;;
73084;SDS011;62974;49.460;10.892;2023-05-10T12:20:54;1.92;;;0.80;;
73084;SDS011;62974;49.460;10.892;2023-05-10T12:23:31;1.92;;;0.88;;
73084;SDS011;62974;49.460;10.892;2023-05-10T12:26:01;1.58;;;0.73;;
73084;SDS011;62974;49.460;10.892;2023-05-10T12:28:29;2.17;;;0.80;;
73084;SDS011;62974;49.460;10.892;2023-05-10T12:30:58;1.45;;;0.90;;
73084;SDS011;62974;49.460;10.892;2023-05-10T12:33:26;1.70;;;1.00;;
73084;SDS011;62974;49.460;10.892;2023-05-10T12:35:54;1.95;;;0.98;;
73084;SDS011;62974;49.460;10.892;2023-05-10T12:38:25;1.65;;;0.80;;
73084;SDS011;62974;49.460;10.892;2023-05-10T12:40:55;1.60;;;0.90;;
73084;SDS011;62974;49.460;10.892;2023-05-10T12:43:23;1.33;;;0.70;;
73084;SDS011;62974;49.460;10.892;2023-05-10T12:45:51;0.65;;;0.50;;
73084;SDS011;62974;49.460;10.892;2023-05-10T12:48:19;1.20;;;0.60;;
73084;SDS011;62974;49.460;10.892;2023-05-10T12:50:46;1.80;;;0.80;;
73084;SDS011;62974;49.460;10.892;2023-05-10T12:53:14;2.45;;;0.90;;
73084;SDS011;62974;49.460;10.892;2023-05-10T12:55:43;2.20;;;0.65;;
73084;SDS011;62974;49.460;10.892;2023-05-10T12:58:11;2.42;;;0.82;;
73084;SDS011;62974;49.460;10.892;2023-05-10T13:00:59;2.55;;;0.80;;
73084;SDS011;62974;49.460;10.892;2023-05-10T13:03:27;1.30;;;0.60;;
73084;SDS011;62974;49.460;10.892;2023-05-10T13:05:54;1.35;;;0.90;;
73084;SDS011;62974;49.460;10.892;2023-05-10T13:08:22;1.45;;;0.60;;
73084;SDS011;62974;49.460;10.892;2023-05-10T13:10:51;2.28;;;0.77;;
73084;SDS011;62974;49.460;10.892;2023-05-10T13:13:19;1.70;;;0.70;;
73084;SDS011;62974;49.460;10.892;2023-05-10T13:15:46;1.70;;;0.55;;
73084;SDS011;62974;49.460;10.892;2023-05-10T13:18:14;0.88;;;0.65;;
73084;SDS011;62974;49.460;10.892;2023-05-10T13:20:41;1.40;;;0.63;;
73084;SDS011;62974;49.460;10.892;2023-05-10T13:23:10;0.82;;;0.50;;
73084;SDS011;62974;49.460;10.892;2023-05-10T13:25:37;0.75;;;0.47;;
73084;SDS011;62974;49.460;10.892;2023-05-10T13:28:06;0.90;;;0.60;;
73084;SDS011;62974;49.460;10.892;2023-05-10T13:30:34;1.80;;;0.73;;
73084;SDS011;62974;49.460;10.892;2023-05-10T13:33:01;1.23;;;0.65;;
73084;SDS011;62974;49.460;10.892;2023-05-10T13:35:29;0.90;;;0.60;;
73084;SDS011;62974;49.460;10.892;2023-05-10T13:37:56;0.88;;;0.60;;
73084;SDS011;62974;49.460;10.892;2023-05-10T13:40:24;1.33;;;0.70;;
73084;SDS011;62974;49.460;10.892;2023-05-10T13:42:51;0.80;;;0.43;;
73084;SDS011;62974;49.460;10.892;2023-05-10T13:45:20;2.00;;;0.80;;
73084;SDS011;62974;49.460;10.892;2023-05-10T13:47:48;2.80;;;0.80;;
73084;SDS011;62974;49.460;10.892;2023-05-10T13:50:16;1.77;;;0.60;;
73084;SDS011;62974;49.460;10.892;2023-05-10T13:52:44;1.67;;;0.95;;
73084;SDS011;62974;49.460;10.892;2023-05-10T13:55:12;2.05;;;0.95;;
73084;SDS011;62974;49.460;10.892;2023-05-10T14:00:09;1.40;;;0.90;;
73084;SDS011;62974;49.460;10.892;2023-05-10T14:02:38;0.93;;;0.63;;
73084;SDS011;62974;49.460;10.892;2023-05-10T14:05:06;1.27;;;0.80;;
73084;SDS011;62974;49.460;10.892;2023-05-10T14:07:34;1.02;;;0.70;;
73084;SDS011;62974;49.460;10.892;2023-05-10T14:10:02;0.75;;;0.57;;
73084;SDS011;62974;49.460;10.892;2023-05-10T14:12:29;1.50;;;0.73;;
73084;SDS011;62974;49.460;10.892;2023-05-10T14:14:57;1.92;;;0.95;;
73084;SDS011;62974;49.460;10.892;2023-05-10T14:17:25;1.83;;;1.10;;
73084;SDS011;62974;49.460;10.892;2023-05-10T14:19:54;1.75;;;0.93;;
73084;SDS011;62974;49.460;10.892;2023-05-10T14:22:21;1.08;;;0.82;;
73084;SDS011;62974;49.460;10.892;2023-05-10T14:24:49;2.03;;;1.08;;
73084;SDS011;62974;49.460;10.892;2023-05-10T14:27:16;2.75;;;1.20;;
73084;SDS011;62974;49.460;10.892;2023-05-10T14:29:44;4.93;;;2.00;;
73084;SDS011;62974;49.460;10.892;2023-05-10T14:32:11;3.20;;;1.67;;
73084;SDS011;62974;49.460;10.892;2023-05-10T14:34:39;1.90;;;1.30;;
73084;SDS011;62974;49.460;10.892;2023-05-10T14:37:09;3.92;;;1.13;;
73084;SDS011;62974;49.460;10.892;2023-05-10T14:39:37;1.80;;;1.15;;
73084;SDS011;62974;49.460;10.892;2023-05-10T14:42:05;1.70;;;1.02;;
73084;SDS011;62974;49.460;10.892;2023-05-10T14:44:32;2.30;;;1.40;;
73084;SDS011;62974;49.460;10.892;2023-05-10T14:47:00;1.60;;;0.90;;
73084;SDS011;62974;49.460;10.892;2023-05-10T14:49:27;2.67;;;1.23;;
73084;SDS011;62974;49.460;10.892;2023-05-10T14:51:55;1.63;;;1.20;;
73084;SDS011;62974;49.460;10.892;2023-05-10T14:54:24;2.50;;;1.27;;
73084;SDS011;62974;49.460;10.892;2023-05-10T14:56:52;1.23;;;0.80;;
73084;SDS011;62974;49.460;10.892;2023-05-10T14:59:22;1.45;;;0.70;;
73084;SDS011;62974;49.460;10.892;2023-05-10T15:01:52;1.10;;;0.60;;
73084;SDS011;62974;49.460;10.892;2023-05-10T15:04:21;0.80;;;0.55;;
73084;SDS011;62974;49.460;10.892;2023-05-10T15:06:49;0.98;;;0.43;;
73084;SDS011;62974;49.460;10.892;2023-05-10T15:09:17;1.83;;;0.60;;
73084;SDS011;62974;49.460;10.892;2023-05-10T15:11:46;0.75;;;0.38;;
73084;SDS011;62974;49.460;10.892;2023-05-10T15:14:14;0.88;;;0.50;;